sensor_id;sensor_type;location;lat;lon;timestamp;pressure;altitude;pressure_sealevel;temperature;humidity
48774;BME280;34576;0.000;0.000;2023-02-03T00:03:45;98064.09;;;15.94;66.47
48774;BME280;34576;0.000;0.000;2023-02-03T00:10:46;98073.09;;;15.93;66.51
48774;BME280;34576;0.000;0.000;2023-02-03T00:17:46;98089.16;;;15.98;66.67
48774;BME280;34576;0.000;0.000;2023-02-03T00:24:46;98079.69;;;16.02;66.36
48774;BME280;34576;0.000;0.000;2023-02-03T00:31:47;98077.03;;;16.02;66.34
48774;BME280;34576;0.000;0.000;2023-02-03T00:38:47;98079.34;;;16.10;66.86
48774;BME280;34576;0.000;0.000;2023-02-03T00:45:49;98084.22;;;16.13;66.47
48774;BME280;34576;0.000;0.000;2023-02-03T00:52:49;98077.97;;;16.08;66.33
48774;BME280;34576;0.000;0.000;2023-02-03T00:59:49;98066.91;;;16.11;65.92
48774;BME280;34576;0.000;0.000;2023-02-03T01:06:50;98086.06;;;16.13;65.92
48774;BME280;34576;0.000;0.000;2023-02-03T01:13:50;98104.41;;;16.14;65.76
48774;BME280;34576;0.000;0.000;2023-02-03T01:20:51;98110.31;;;16.16;66.02
48774;BME280;34576;0.000;0.000;2023-02-03T01:27:52;98107.66;;;16.16;65.74
48774;BME280;34576;0.000;0.000;2023-02-03T01:34:52;98099.69;;;16.16;65.89
48774;BME280;34576;0.000;0.000;2023-02-03T01:41:53;98097.03;;;16.16;66.07
48774;BME280;34576;0.000;0.000;2023-02-03T01:49:17;98111.34;;;16.15;66.37
48774;BME280;34576;0.000;0.000;2023-02-03T01:56:14;98112.97;;;16.16;66.67
48774;BME280;34576;0.000;0.000;2023-02-03T02:03:15;98096.66;;;16.13;66.96
48774;BME280;34576;0.000;0.000;2023-02-03T02:10:18;98064.59;;;16.14;67.80
48774;BME280;34576;0.000;0.000;2023-02-03T02:31:33;98036.53;;;16.18;67.78
48774;BME280;34576;0.000;0.000;2023-02-03T02:52:46;98052.25;;;16.20;67.73
48774;BME280;34576;0.000;0.000;2023-02-03T02:59:48;98045.75;;;16.16;68.04
48774;BME280;34576;0.000;0.000;2023-02-03T03:06:52;98015.91;;;16.20;67.80
48774;BME280;34576;0.000;0.000;2023-02-03T03:13:57;97975.34;;;16.37;68.17
48774;BME280;34576;0.000;0.000;2023-02-03T03:20:58;98000.19;;;16.31;67.93
48774;BME280;34576;0.000;0.000;2023-02-03T03:28:06;98007.69;;;16.34;68.64
48774;BME280;34576;0.000;0.000;2023-02-03T03:35:08;98012.53;;;16.37;69.32
48774;BME280;34576;0.000;0.000;2023-02-03T03:42:10;98030.88;;;16.38;69.94
48774;BME280;34576;0.000;0.000;2023-02-03T03:49:12;98006.75;;;16.40;70.55
48774;BME280;34576;0.000;0.000;2023-02-03T03:56:16;98019.00;;;16.41;71.43
48774;BME280;34576;0.000;0.000;2023-02-03T04:03:20;98013.44;;;16.43;71.54
48774;BME280;34576;0.000;0.000;2023-02-03T04:10:39;98011.59;;;16.43;71.83
48774;BME280;34576;0.000;0.000;2023-02-03T04:17:40;97992.78;;;16.45;72.23
48774;BME280;34576;0.000;0.000;2023-02-03T04:24:40;97990.69;;;16.47;72.20
48774;BME280;34576;0.000;0.000;2023-02-03T04:31:41;98037.13;;;16.44;72.86
48774;BME280;34576;0.000;0.000;2023-02-03T04:38:41;98063.44;;;16.46;73.01
48774;BME280;34576;0.000;0.000;2023-02-03T04:45:41;98047.28;;;16.47;73.57
48774;BME280;34576;0.000;0.000;2023-02-03T04:52:42;98053.19;;;16.49;73.31
48774;BME280;34576;0.000;0.000;2023-02-03T04:59:42;98060.13;;;16.50;73.25
48774;BME280;34576;0.000;0.000;2023-02-03T05:06:42;98047.03;;;16.49;73.36
48774;BME280;34576;0.000;0.000;2023-02-03T05:13:42;98021.31;;;16.49;73.87
48774;BME280;34576;0.000;0.000;2023-02-03T05:20:43;98041.41;;;16.45;73.72
48774;BME280;34576;0.000;0.000;2023-02-03T05:27:43;98027.19;;;16.51;74.25
48774;BME280;34576;0.000;0.000;2023-02-03T05:34:43;98004.91;;;16.52;74.06
48774;BME280;34576;0.000;0.000;2023-02-03T05:41:43;98004.78;;;14.60;56.48
48774;BME280;34576;0.000;0.000;2023-02-03T05:48:53;98017.88;;;13.54;53.55
48774;BME280;34576;0.000;0.000;2023-02-03T05:55:53;98028.50;;;13.08;52.59
48774;BME280;34576;0.000;0.000;2023-02-03T06:02:54;98026.06;;;14.90;52.66
48774;BME280;34576;0.000;0.000;2023-02-03T06:09:55;98041.50;;;15.73;56.53
48774;BME280;34576;0.000;0.000;2023-02-03T06:16:55;98031.66;;;15.80;57.83
48774;BME280;34576;0.000;0.000;2023-02-03T06:23:55;98023.75;;;15.73;60.58
48774;BME280;34576;0.000;0.000;2023-02-03T06:30:56;98043.19;;;15.85;61.00
48774;BME280;34576;0.000;0.000;2023-02-03T06:37:56;98071.91;;;15.88;61.87
48774;BME280;34576;0.000;0.000;2023-02-03T06:44:56;98093.75;;;15.91;62.32
48774;BME280;34576;0.000;0.000;2023-02-03T06:51:57;98111.25;;;15.92;62.78
48774;BME280;34576;0.000;0.000;2023-02-03T06:58:57;98098.38;;;15.95;62.99
48774;BME280;34576;0.000;0.000;2023-02-03T07:05:58;98111.41;;;15.97;63.24
48774;BME280;34576;0.000;0.000;2023-02-03T07:13:04;98081.41;;;15.96;63.52
48774;BME280;34576;0.000;0.000;2023-02-03T07:20:05;98073.22;;;15.98;63.60
48774;BME280;34576;0.000;0.000;2023-02-03T07:27:06;98064.91;;;15.94;63.98
48774;BME280;34576;0.000;0.000;2023-02-03T07:34:06;98040.22;;;15.94;64.02
48774;BME280;34576;0.000;0.000;2023-02-03T07:41:06;98022.44;;;15.94;64.01
48774;BME280;34576;0.000;0.000;2023-02-03T07:48:07;98025.09;;;15.94;64.27
48774;BME280;34576;0.000;0.000;2023-02-03T07:55:07;98066.75;;;15.94;64.30
48774;BME280;34576;0.000;0.000;2023-02-03T08:02:08;98081.84;;;15.93;64.36
48774;BME280;34576;0.000;0.000;2023-02-03T08:09:10;98049.66;;;15.90;64.43
48774;BME280;34576;0.000;0.000;2023-02-03T08:16:10;98049.19;;;15.93;64.43
48774;BME280;34576;0.000;0.000;2023-02-03T08:23:10;98031.09;;;15.90;64.34
48774;BME280;34576;0.000;0.000;2023-02-03T08:30:12;98025.19;;;15.87;64.35
48774;BME280;34576;0.000;0.000;2023-02-03T08:37:13;98046.06;;;15.84;64.55
48774;BME280;34576;0.000;0.000;2023-02-03T08:44:13;98064.66;;;15.84;64.61
48774;BME280;34576;0.000;0.000;2023-02-03T08:51:15;98077.53;;;15.80;64.57
48774;BME280;34576;0.000;0.000;2023-02-03T08:58:16;98064.50;;;15.79;64.68
48774;BME280;34576;0.000;0.000;2023-02-03T09:05:16;98064.94;;;15.76;64.71
48774;BME280;34576;0.000;0.000;2023-02-03T09:12:17;98085.50;;;15.80;64.81
48774;BME280;34576;0.000;0.000;2023-02-03T09:19:17;98084.91;;;15.78;64.73
48774;BME280;34576;0.000;0.000;2023-02-03T09:26:18;98108.22;;;15.76;64.62
48774;BME280;34576;0.000;0.000;2023-02-03T09:33:20;98111.88;;;15.75;64.81
48774;BME280;34576;0.000;0.000;2023-02-03T09:40:26;98119.84;;;15.75;64.57
48774;BME280;34576;0.000;0.000;2023-02-03T09:47:28;98113.94;;;15.73;64.66
48774;BME280;34576;0.000;0.000;2023-02-03T10:02:20;98122.50;;;15.75;64.53
48774;BME280;34576;0.000;0.000;2023-02-03T10:23:34;98137.41;;;15.76;64.53
48774;BME280;34576;0.000;0.000;2023-02-03T10:30:38;98140.06;;;15.76;64.61
48774;BME280;34576;0.000;0.000;2023-02-03T10:37:45;98128.56;;;15.82;64.33
48774;BME280;34576;0.000;0.000;2023-02-03T10:44:59;98137.97;;;15.78;64.59
48774;BME280;34576;0.000;0.000;2023-02-03T10:52:00;98120.81;;;15.81;64.39
48774;BME280;34576;0.000;0.000;2023-02-03T10:59:02;98109.97;;;15.82;64.37
48774;BME280;34576;0.000;0.000;2023-02-03T11:06:07;98086.09;;;15.82;64.39
48774;BME280;34576;0.000;0.000;2023-02-03T11:20:15;98106.13;;;15.78;64.61
48774;BME280;34576;0.000;0.000;2023-02-03T11:27:16;98102.03;;;15.82;64.23
48774;BME280;34576;0.000;0.000;2023-02-03T11:34:18;98078.94;;;15.83;64.37
48774;BME280;34576;0.000;0.000;2023-02-03T11:41:23;98075.03;;;15.85;64.28
48774;BME280;34576;0.000;0.000;2023-02-03T11:48:43;98095.09;;;15.81;64.50
48774;BME280;34576;0.000;0.000;2023-02-03T12:03:09;98075.25;;;15.84;64.28
48774;BME280;34576;0.000;0.000;2023-02-03T12:10:21;98056.47;;;15.85;64.38
48774;BME280;34576;0.000;0.000;2023-02-03T12:24:48;98018.75;;;15.83;64.35
48774;BME280;34576;0.000;0.000;2023-02-03T12:39:20;98017.13;;;15.82;64.51
48774;BME280;34576;0.000;0.000;2023-02-03T12:53:26;97997.50;;;15.83;64.21
48774;BME280;34576;0.000;0.000;2023-02-03T13:00:33;98003.63;;;15.84;64.29
48774;BME280;34576;0.000;0.000;2023-02-03T13:07:39;98005.91;;;15.80;64.35
48774;BME280;34576;0.000;0.000;2023-02-03T13:14:41;98000.59;;;15.80;64.50
48774;BME280;34576;0.000;0.000;2023-02-03T13:21:43;97989.84;;;15.75;64.47
48774;BME280;34576;0.000;0.000;2023-02-03T13:36:07;97992.28;;;15.77;64.52
48774;BME280;34576;0.000;0.000;2023-02-03T13:43:13;97997.22;;;15.73;64.40
48774;BME280;34576;0.000;0.000;2023-02-03T13:50:16;97995.63;;;15.72;64.41
48774;BME280;34576;0.000;0.000;2023-02-03T14:18:42;98012.19;;;15.67;64.39
48774;BME280;34576;0.000;0.000;2023-02-03T14:25:46;98018.09;;;15.69;64.27
48774;BME280;34576;0.000;0.000;2023-02-03T14:32:48;98012.44;;;15.66;64.22
48774;BME280;34576;0.000;0.000;2023-02-03T14:46:58;97987.53;;;15.67;63.73
48774;BME280;34576;0.000;0.000;2023-02-03T15:08:38;98000.94;;;15.72;61.92
48774;BME280;34576;0.000;0.000;2023-02-03T15:15:43;98008.19;;;15.65;62.20
48774;BME280;34576;0.000;0.000;2023-02-03T15:22:43;97989.59;;;15.65;62.13
48774;BME280;34576;0.000;0.000;2023-02-03T15:29:44;97996.50;;;15.66;62.29
48774;BME280;34576;0.000;0.000;2023-02-03T15:36:46;98016.72;;;15.67;62.23
48774;BME280;34576;0.000;0.000;2023-02-03T15:43:50;98032.63;;;15.67;62.18
48774;BME280;34576;0.000;0.000;2023-02-03T15:50:57;98035.84;;;15.69;62.36
48774;BME280;34576;0.000;0.000;2023-02-03T15:58:02;98045.88;;;15.67;62.39
48774;BME280;34576;0.000;0.000;2023-02-03T16:05:04;98028.34;;;15.66;62.24
48774;BME280;34576;0.000;0.000;2023-02-03T16:19:20;98024.53;;;15.62;61.93
48774;BME280;34576;0.000;0.000;2023-02-03T16:26:22;98032.25;;;15.63;61.67
48774;BME280;34576;0.000;0.000;2023-02-03T16:33:25;98024.75;;;15.60;62.09
48774;BME280;34576;0.000;0.000;2023-02-03T16:40:49;98020.72;;;15.58;62.22
48774;BME280;34576;0.000;0.000;2023-02-03T16:48:09;98025.44;;;15.56;62.31
48774;BME280;34576;0.000;0.000;2023-02-03T16:55:29;98030.75;;;15.56;62.30
48774;BME280;34576;0.000;0.000;2023-02-03T17:02:30;98020.59;;;15.52;62.27
48774;BME280;34576;0.000;0.000;2023-02-03T17:09:30;98026.91;;;15.51;62.50
48774;BME280;34576;0.000;0.000;2023-02-03T17:16:34;98026.13;;;15.51;62.43
48774;BME280;34576;0.000;0.000;2023-02-03T17:23:34;98028.53;;;15.52;62.40
48774;BME280;34576;0.000;0.000;2023-02-03T17:30:35;98046.50;;;15.50;62.61
48774;BME280;34576;0.000;0.000;2023-02-03T17:37:35;98051.00;;;15.50;62.42
48774;BME280;34576;0.000;0.000;2023-02-03T17:44:35;98067.38;;;15.47;62.61
48774;BME280;34576;0.000;0.000;2023-02-03T17:51:36;98055.97;;;15.46;62.51
48774;BME280;34576;0.000;0.000;2023-02-03T17:58:36;98066.34;;;15.48;62.58
48774;BME280;34576;0.000;0.000;2023-02-03T18:05:37;98056.41;;;15.43;62.68
48774;BME280;34576;0.000;0.000;2023-02-03T18:12:38;98045.22;;;15.41;62.56
48774;BME280;34576;0.000;0.000;2023-02-03T18:19:38;98049.94;;;15.39;62.70
48774;BME280;34576;0.000;0.000;2023-02-03T18:26:49;98055.81;;;15.41;62.44
48774;BME280;34576;0.000;0.000;2023-02-03T18:33:50;98062.59;;;15.37;62.81
48774;BME280;34576;0.000;0.000;2023-02-03T18:40:52;98056.28;;;15.38;62.55
48774;BME280;34576;0.000;0.000;2023-02-03T18:47:54;98054.88;;;15.35;62.57
48774;BME280;34576;0.000;0.000;2023-02-03T18:54:54;98054.31;;;15.33;62.73
48774;BME280;34576;0.000;0.000;2023-02-03T19:01:55;98052.59;;;15.39;62.51
48774;BME280;34576;0.000;0.000;2023-02-03T19:08:55;98052.91;;;15.31;62.72
48774;BME280;34576;0.000;0.000;2023-02-03T19:15:56;98060.03;;;15.30;62.58
48774;BME280;34576;0.000;0.000;2023-02-03T19:22:56;98060.41;;;15.34;62.63
48774;BME280;34576;0.000;0.000;2023-02-03T19:29:57;98075.72;;;15.32;62.88
48774;BME280;34576;0.000;0.000;2023-02-03T19:36:57;98062.91;;;15.29;62.77
48774;BME280;34576;0.000;0.000;2023-02-03T19:43:58;98070.06;;;15.28;62.94
48774;BME280;34576;0.000;0.000;2023-02-03T19:50:58;98077.22;;;15.28;62.61
48774;BME280;34576;0.000;0.000;2023-02-03T19:57:58;98056.00;;;15.28;62.37
48774;BME280;34576;0.000;0.000;2023-02-03T20:04:59;98062.34;;;15.27;62.69
48774;BME280;34576;0.000;0.000;2023-02-03T20:11:59;98055.41;;;15.56;61.82
48774;BME280;34576;0.000;0.000;2023-02-03T20:19:00;98056.69;;;15.96;60.75
48774;BME280;34576;0.000;0.000;2023-02-03T20:26:00;98067.22;;;15.91;62.84
48774;BME280;34576;0.000;0.000;2023-02-03T20:33:00;98077.25;;;15.70;63.41
48774;BME280;34576;0.000;0.000;2023-02-03T20:40:01;98062.50;;;15.74;63.62
48774;BME280;34576;0.000;0.000;2023-02-03T20:47:02;98072.56;;;15.72;63.94
48774;BME280;34576;0.000;0.000;2023-02-03T20:54:04;98070.41;;;15.81;64.27
48774;BME280;34576;0.000;0.000;2023-02-03T21:01:11;98076.28;;;15.83;64.24
48774;BME280;34576;0.000;0.000;2023-02-03T21:08:13;98086.75;;;15.78;64.21
48774;BME280;34576;0.000;0.000;2023-02-03T21:15:17;98103.66;;;15.83;64.38
48774;BME280;34576;0.000;0.000;2023-02-03T21:22:22;98117.03;;;15.88;64.96
48774;BME280;34576;0.000;0.000;2023-02-03T21:29:24;98114.53;;;15.94;64.86
48774;BME280;34576;0.000;0.000;2023-02-03T21:36:26;98106.09;;;15.97;65.55
48774;BME280;34576;0.000;0.000;2023-02-03T21:43:27;98103.59;;;16.02;65.63
48774;BME280;34576;0.000;0.000;2023-02-03T21:50:33;98096.56;;;16.08;65.99
48774;BME280;34576;0.000;0.000;2023-02-03T21:57:33;98088.94;;;16.11;66.31
48774;BME280;34576;0.000;0.000;2023-02-03T22:04:33;98091.34;;;16.13;66.35
48774;BME280;34576;0.000;0.000;2023-02-03T22:11:33;98105.56;;;16.18;66.56
48774;BME280;34576;0.000;0.000;2023-02-03T22:18:34;98109.63;;;16.21;67.30
48774;BME280;34576;0.000;0.000;2023-02-03T22:25:35;98114.47;;;16.24;67.40
48774;BME280;34576;0.000;0.000;2023-02-03T22:32:35;98117.13;;;16.24;67.85
48774;BME280;34576;0.000;0.000;2023-02-03T22:39:36;98111.56;;;16.26;67.82
48774;BME280;34576;0.000;0.000;2023-02-03T22:46:37;98112.28;;;16.33;67.77
48774;BME280;34576;0.000;0.000;2023-02-03T22:53:37;98117.72;;;16.26;67.90
48774;BME280;34576;0.000;0.000;2023-02-03T23:00:38;98102.59;;;16.27;67.77
48774;BME280;34576;0.000;0.000;2023-02-03T23:07:39;98108.69;;;16.27;67.94
48774;BME280;34576;0.000;0.000;2023-02-03T23:14:39;98115.41;;;16.30;68.07
48774;BME280;34576;0.000;0.000;2023-02-03T23:21:39;98118.50;;;16.27;62.13
48774;BME280;34576;0.000;0.000;2023-02-03T23:28:40;98134.44;;;16.27;67.38
48774;BME280;34576;0.000;0.000;2023-02-03T23:35:40;98132.03;;;16.25;67.57
48774;BME280;34576;0.000;0.000;2023-02-03T23:42:48;98132.34;;;16.29;67.65
48774;BME280;34576;0.000;0.000;2023-02-03T23:49:48;98114.38;;;16.31;67.49
48774;BME280;34576;0.000;0.000;2023-02-03T23:56:48;98118.28;;;16.28;67.92
